Latest Weather Observations for Norah Head

IDN60801

Issued at 2:34 pm EDT Friday 27 February 2015 (issued every 30 minutes, with the page automatically refreshed every 10 minutes)

About weather observations | Map of weather stations | Latest weather observations for NSW | Other Formats
Station Details ID: 061366 Name: NORAH HEAD AWS Lat: -33.28 Lon: 151.58 Height: 18.8 m
Data from the previous 72 hours. | See also: Recent months at Norah Head
Date/Time
EDT
Temp
°C
App
Temp
°C
Dew
Point
Rel
Hum
%
Delta-T
°C
Wind Press
QNH
hPa
Press
MSL
hPa
Rain
since 9 am
mm
Dir
 
Spd
km/h
Gust
km/h
Spd
kts
Gust
kts
27/02:30pm 25.7 28.6 21.1 76 3.0 SSE 7 9 4 5 1009.6 1009.5 1.6
27/02:00pm 25.4 28.5 21.1 77 2.8 SSE 6 7 3 4 1009.7 1009.6 1.6
27/01:30pm 25.9 28.8 21.8 78 2.7 SSE 9 11 5 6 1009.7 1009.6 1.6
27/01:00pm 26.2 28.9 22.9 82 2.2 S 13 15 7 8 1010.2 1010.1 1.6
27/12:30pm 25.1 27.0 22.0 83 2.1 S 15 20 8 11 1010.3 1010.2 1.6
27/12:00pm 24.9 26.8 22.0 84 1.9 S 15 19 8 10 1010.6 1010.5 1.6
27/11:30am 24.5 25.8 21.6 84 1.9 SSW 17 19 9 10 1010.8 1010.7 1.6
27/11:00am 23.8 25.7 21.3 86 1.6 SSW 13 19 7 10 1010.9 1010.8 1.4
27/10:30am 23.9 26.7 22.3 91 1.1 SSW 11 15 6 8 1010.9 1010.8 1.4
27/10:00am 23.0 26.3 21.8 93 0.8 SW 7 11 4 6 1010.8 1010.7 1.4
27/09:30am 23.0 24.5 20.5 86 1.6 SW 13 19 7 10 1010.7 1010.6 0.0
27/09:00am 22.5 24.6 21.0 91 1.0 SW 11 19 6 10 1010.4 1010.3 1.6
27/08:30am 22.3 25.0 21.3 94 0.7 SW 9 17 5 9 1010.3 1010.2 1.6
27/08:00am 21.6 23.2 20.8 95 0.5 SW 13 20 7 11 1010.0 1009.9 1.6
27/07:30am 21.6 23.0 21.1 97 0.3 SW 15 22 8 12 1009.6 1009.5 1.6
27/07:00am 21.3 22.9 20.8 97 0.3 SSW 13 20 7 11 1009.0 1009.0 1.4
27/06:30am 21.3 22.9 20.8 97 0.3 SSW 13 24 7 13 1008.8 1008.8 1.2
27/06:00am 21.0 22.5 20.5 97 0.3 SW 13 20 7 11 1008.6 1008.6 1.2
27/05:30am 21.1 21.6 20.8 98 0.2 SSW 19 26 10 14 1008.2 1008.2 1.2
27/05:00am 21.1 21.3 20.6 97 0.3 SSW 20 30 11 16 1008.1 1008.1 1.2
27/04:30am 21.2 21.7 20.9 98 0.2 SSW 19 26 10 14 1008.0 1008.0 1.2
27/04:00am 21.1 22.0 20.9 99 0.1 SSW 17 24 9 13 1007.8 1007.8 1.2
27/03:30am 20.7 21.8 20.5 99 0.1 SW 15 22 8 12 1007.7 1007.7 1.2
27/03:00am 20.8 22.7 20.6 99 0.1 SW 11 17 6 9 1007.7 1007.7 1.0
27/02:30am 20.8 22.7 20.6 99 0.1 SW 11 17 6 9 1007.9 1007.9 1.0
27/02:00am 21.1 23.1 20.8 98 0.2 WSW 11 15 6 8 1008.2 1008.2 1.0
27/01:30am 21.3 23.7 20.8 97 0.3 WSW 9 13 5 7 1008.7 1008.7 1.0
27/01:00am 21.4 23.8 20.9 97 0.3 SW 9 11 5 6 1009.0 1009.0 1.0
27/12:30am 21.4 24.8 20.9 97 0.3 SW 4 6 2 3 1008.6 1008.6 1.0
27/12:00am 21.7 24.6 21.0 96 0.5 SSW 7 13 4 7 1008.4 1008.4 1.0
 
Date/Time
EDT
Temp
°C
App
Temp
°C
Dew
Point
Rel
Hum
%
Delta-T
°C
Wind Press
QNH
hPa
Press
MSL
hPa
Rain
since 9 am
mm
Dir
 
Spd
km/h
Gust
km/h
Spd
kts
Gust
kts
26/11:30pm 21.4 24.1 20.6 95 0.5 WSW 7 13 4 7 1008.4 1008.4 1.0
26/11:00pm 21.2 24.8 20.5 96 0.5 W 2 6 1 3 1008.7 1008.7 1.0
26/10:30pm 21.7 25.3 21.2 97 0.3 N 4 6 2 3 1009.2 1009.2 1.0
26/10:00pm 21.7 23.8 21.0 96 0.5 N 11 13 6 7 1009.0 1009.0 0.8
26/09:30pm 21.7 25.1 20.9 95 0.5 NW 4 6 2 3 1009.1 1009.1 0.8
26/09:00pm 21.7 25.0 20.7 94 0.6 NW 4 6 2 3 1009.2 1009.2 0.8
26/08:30pm 22.0 24.5 21.0 94 0.7 N 9 9 5 5 1008.9 1008.9 0.6
26/08:00pm 22.1 23.9 21.1 94 0.7 NNE 13 17 7 9 1008.2 1008.2 0.4
26/07:30pm 22.3 24.5 21.1 93 0.8 NNE 11 15 6 8 1007.4 1007.4 0.4
26/07:00pm 22.5 26.2 20.8 90 1.1 NNE 2 6 1 3 1007.3 1007.3 0.4
26/06:30pm 23.0 26.5 21.1 89 1.2 E 4 7 2 4 1006.7 1006.7 0.4
26/06:00pm 23.1 26.4 21.4 90 1.1 SE 6 7 3 4 1006.6 1006.6 0.4
26/05:30pm 22.7 24.2 20.6 88 1.4 SE 13 15 7 8 1005.8 1005.8 0.4
26/05:00pm 23.3 24.9 20.8 86 1.6 SE 13 13 7 7 1006.4 1006.4 0.4
26/04:30pm 24.1 26.4 21.4 85 1.8 SE 11 15 6 8 1006.7 1006.7 0.4
26/04:00pm 23.1 24.8 20.2 84 1.9 SSE 11 11 6 6 1006.8 1006.8 0.4
26/03:30pm 24.2 26.9 20.7 81 2.3 SSE 7 9 4 5 1007.1 1007.1 0.4
26/03:00pm 24.3 27.2 20.6 80 2.4 SSE 6 7 3 4 1007.5 1007.5 0.4
26/02:30pm 24.7 27.8 21.4 82 2.2 SSE 7 9 4 5 1007.8 1007.8 0.4
26/02:00pm 24.8 27.3 21.1 80 2.4 S 9 11 5 6 1008.3 1008.3 0.4
26/01:30pm 24.9 28.0 22.2 85 1.8 S 9 11 5 6 1008.7 1008.7 0.4
26/01:00pm 23.4 26.2 21.5 89 1.3 S 9 11 5 6 1008.9 1008.9 0.4
26/12:30pm 22.4 25.0 20.5 89 1.2 SSW 7 9 4 5 1009.5 1009.4 0.4
26/12:00pm 21.9 23.9 20.0 89 1.2 SSW 9 15 5 8 1009.8 1009.7 0.4
26/11:30am 21.9 24.1 20.4 91 1.0 SSW 9 15 5 8 1010.3 1010.2 0.4
26/11:00am 21.8 24.7 21.1 96 0.5 SSW 7 11 4 6 1010.6 1010.5 0.4
26/10:30am 21.6 24.9 21.4 99 0.1 WSW 6 11 3 6 1010.8 1010.7 0.4
26/10:00am 20.8 23.6 20.8 100 0.0 WSW 7 13 4 7 1010.9 1010.8 0.4
26/09:30am 20.2 22.6 20.0 99 0.1 W 7 13 4 7 1011.0 1010.9 0.2
26/09:00am 20.2 22.6 20.0 99 0.1 WSW 7 11 4 6 1010.7 1010.6 28.8
26/08:30am 20.1 23.0 19.9 99 0.1 WSW 4 7 2 4 1010.5 1010.4 28.8
26/08:00am 20.0 22.3 19.8 99 0.1 SW 7 13 4 7 1010.3 1010.2 28.6
26/07:30am 19.9 21.8 19.7 99 0.1 WSW 9 13 5 7 1010.3 1010.2 28.4
26/07:00am 19.9 22.1 19.7 99 0.1 SW 7 11 4 6 1010.0 1009.9 28.4
26/06:30am 19.9 21.8 19.7 99 0.1 WSW 9 11 5 6 1009.8 1009.7 28.2
26/06:00am 19.7 20.7 19.4 98 0.2 WSW 13 17 7 9 1009.8 1009.7 28.0
26/05:30am 19.9 21.6 19.4 97 0.3 SW 9 13 5 7 1009.8 1009.7 27.2
26/05:00am 20.0 22.1 19.3 96 0.4 SW 7 13 4 7 1009.8 1009.7 27.0
26/04:30am 20.5 22.3 19.5 94 0.6 SSW 9 15 5 8 1009.9 1009.8 26.8
26/04:00am 21.0 22.7 19.3 90 1.1 S 9 13 5 7 1010.1 1010.0 26.2
26/03:30am 21.6 23.8 19.5 88 1.3 SE 7 13 4 7 1010.3 1010.2 26.2
26/03:00am 21.6 22.2 19.5 88 1.3 SSE 15 17 8 9 1010.6 1010.5 26.2
26/02:30am 21.6 21.5 19.5 88 1.3 SSE 19 20 10 11 1010.9 1010.8 26.2
26/02:00am 21.8 21.6 19.7 88 1.3 SE 20 24 11 13 1011.2 1011.1 26.2
26/01:30am 21.7 21.9 19.4 87 1.5 SSE 17 19 9 10 1011.6 1011.5 26.2
26/01:00am 21.7 21.6 19.6 88 1.3 SSE 19 20 10 11 1011.9 1011.8 26.2
26/12:30am 21.6 21.3 19.5 88 1.3 SSE 20 24 11 13 1012.3 1012.2 26.2
26/12:00am 21.6 21.3 19.5 88 1.3 SSE 20 24 11 13 1012.6 1012.5 26.2
 
Date/Time
EDT
Temp
°C
App
Temp
°C
Dew
Point
Rel
Hum
%
Delta-T
°C
Wind Press
QNH
hPa
Press
MSL
hPa
Rain
since 9 am
mm
Dir
 
Spd
km/h
Gust
km/h
Spd
kts
Gust
kts
25/11:30pm 21.5 20.8 19.4 88 1.3 SSE 22 26 12 14 1012.9 1012.8 26.2
25/11:00pm 21.6 20.9 19.5 88 1.3 SSE 22 28 12 15 1013.0 1012.9 26.2
25/10:30pm 21.5 20.0 19.4 88 1.3 SSE 26 30 14 16 1013.1 1013.0 26.2
25/10:00pm 21.3 19.0 19.4 89 1.2 SSE 30 35 16 19 1013.3 1013.2 26.2
25/09:30pm 21.5 19.8 19.8 90 1.1 SSE 28 35 15 19 1013.2 1013.1 26.2
25/09:00pm 21.3 19.6 19.8 91 1.0 S 28 32 15 17 1013.6 1013.5 26.2
25/08:30pm 21.3 19.6 19.8 91 1.0 SSE 28 32 15 17 1013.5 1013.4 26.2
25/08:00pm 21.3 18.5 19.4 89 1.2 SSE 33 39 18 21 1013.3 1013.2 26.2
25/07:30pm 21.6 18.5 19.7 89 1.2 SSE 35 39 19 21 1013.5 1013.4 26.2
25/07:00pm 21.7 18.4 20.0 90 1.1 SSE 37 43 20 23 1013.3 1013.2 26.2
25/06:30pm 21.5 17.8 20.0 91 1.0 SSE 39 48 21 26 1013.2 1013.1 26.2
25/06:00pm 21.4 18.8 20.0 92 0.9 SSE 33 44 18 24 1013.4 1013.3 26.0
25/05:30pm 21.3 17.1 20.5 95 0.5 SSE 43 46 23 25 1013.0 1012.9 26.0
25/05:00pm 21.3 17.4 21.1 99 0.1 SSE 43 52 23 28 1012.8 1012.7 26.0
25/04:30pm 20.9 14.8 20.9 100 0.0 SSE 54 61 29 33 1012.5 1012.4 24.6
25/04:13pm 20.9 17.3 20.9 100 0.0 SSE 41 59 22 32 1012.6 1012.5 21.4
25/04:00pm 20.7 17.2 20.4 98 0.2 S 39 48 21 26 1013.3 1013.2 15.2
25/03:30pm 21.2 16.7 20.0 93 0.8 SSE 43 48 23 26 1013.4 1013.3 0.6
25/03:00pm 22.6 17.9 19.9 85 1.7 SSE 44 50 24 27 1013.3 1013.2 0.0
25/02:54pm 22.9 20.0 20.1 84 1.8 SSE 35 48 19 26 1013.5 1013.4 0.0
25/02:30pm 23.2 22.9 20.3 84 1.9 SSE 22 26 12 14 1014.0 1013.9 0.0
25/02:00pm 23.3 22.7 20.6 85 1.8 SSE 24 28 13 15 1014.2 1014.1 0.0
25/01:30pm 24.3 24.5 21.4 84 1.9 S 22 28 12 15 1014.3 1014.2 0.0
25/01:00pm 25.5 26.4 21.6 79 2.6 S 19 22 10 12 1014.6 1014.5 0.0
25/12:30pm 25.3 26.8 21.2 78 2.7 S 15 19 8 10 1015.1 1015.0 0.0
25/12:00pm 25.0 25.2 21.3 80 2.4 S 22 26 12 14 1015.2 1015.1 0.0
25/11:30am 23.9 23.8 20.0 79 2.5 SSW 20 24 11 13 1015.5 1015.4 0.0
25/11:00am 23.2 23.8 19.4 79 2.4 SSW 15 22 8 12 1015.4 1015.3 0.0
25/10:30am 22.8 22.3 19.2 80 2.3 SSW 20 26 11 14 1015.5 1015.4 0.0
25/10:00am 23.5 24.8 19.4 78 2.6 SSW 11 15 6 8 1015.3 1015.2 0.0
25/09:30am 22.8 24.1 19.4 81 2.2 SSW 11 17 6 9 1015.1 1015.0 0.0
25/09:00am 21.7 21.7 18.1 80 2.2 SSW 15 19 8 10 1015.2 1015.1 0.4
25/08:30am 21.2 21.6 18.2 83 1.9 SSW 13 19 7 10 1015.2 1015.1 0.4
25/08:00am 20.7 21.9 18.3 86 1.5 SW 9 13 5 7 1014.9 1014.8 0.4
25/07:30am 20.3 21.5 18.2 88 1.3 SW 9 19 5 10 1014.5 1014.4 0.4
25/07:00am 20.2 21.5 18.5 90 1.1 SW 9 15 5 8 1014.1 1014.0 0.4
25/06:30am 20.5 20.3 18.6 89 1.2 SSW 17 24 9 13 1014.1 1014.0 0.4
25/06:00am 20.4 21.0 18.7 90 1.1 SW 13 20 7 11 1013.8 1013.7 0.4
25/05:30am 20.6 21.6 18.7 89 1.2 SW 11 20 6 11 1013.8 1013.7 0.4
25/05:00am 20.6 21.6 18.7 89 1.2 SW 11 19 6 10 1013.7 1013.6 0.4
25/04:30am 20.7 20.3 19.0 90 1.1 SSW 19 28 10 15 1013.6 1013.5 0.4
25/04:00am 20.6 20.1 19.1 91 0.9 SSW 20 26 11 14 1013.7 1013.6 0.4
25/03:30am 20.8 19.8 18.9 89 1.2 SSW 22 30 12 16 1013.8 1013.7 0.4
25/03:00am 20.8 20.5 19.1 90 1.1 SSW 19 24 10 13 1014.1 1014.0 0.4
25/02:30am 20.8 19.9 19.1 90 1.1 SSW 22 33 12 18 1014.2 1014.1 0.4
25/02:00am 20.8 20.5 19.5 92 0.8 SSW 20 28 11 15 1014.5 1014.4 0.4
25/01:30am 20.6 19.9 19.4 93 0.8 SSW 22 33 12 18 1014.9 1014.8 0.4
25/01:00am 20.8 19.9 19.8 94 0.6 SSW 24 35 13 19 1015.1 1015.0 0.2
25/12:30am 20.9 19.2 19.9 94 0.6 SSW 28 37 15 20 1015.4 1015.3 0.0
25/12:00am 21.1 20.0 20.3 95 0.5 SSW 26 35 14 19 1015.7 1015.6 0.0
 
Date/Time
EDT
Temp
°C
App
Temp
°C
Dew
Point
Rel
Hum
%
Delta-T
°C
Wind Press
QNH
hPa
Press
MSL
hPa
Rain
since 9 am
mm
Dir
 
Spd
km/h
Gust
km/h
Spd
kts
Gust
kts
24/11:30pm 21.1 20.1 20.4 96 0.5 SSW 26 37 14 20 1015.8 1015.7 0.0
24/11:00pm 21.3 19.6 20.6 96 0.5 SSW 30 39 16 21 1016.0 1015.9 0.0
24/10:30pm 21.4 20.1 20.7 96 0.5 SSW 28 41 15 22 1016.2 1016.1 0.0
24/10:00pm 21.6 20.8 20.9 96 0.5 SSW 26 37 14 20 1016.2 1016.1 0.0
24/09:30pm 21.9 22.0 21.2 96 0.5 SSW 22 32 12 17 1016.1 1016.0 0.0
24/09:00pm 21.8 20.4 21.1 96 0.5 SSW 30 39 16 21 1015.9 1015.8 0.0
24/08:30pm 21.8 21.5 21.1 96 0.5 SSW 24 33 13 18 1015.7 1015.6 0.0
24/08:00pm 21.7 21.0 21.0 96 0.5 S 26 33 14 18 1015.8 1015.7 0.0
24/07:30pm 21.7 20.2 21.0 96 0.5 SSW 30 41 16 22 1015.4 1015.3 0.0
24/07:00pm 21.8 20.2 20.8 94 0.6 S 30 44 16 24 1015.0 1014.9 0.0
24/06:30pm 22.1 21.0 21.1 94 0.7 SSW 28 39 15 21 1014.9 1014.8 0.0
24/06:00pm 22.0 20.4 20.8 93 0.8 S 30 39 16 21 1014.7 1014.6 0.0
24/05:30pm 22.2 20.7 21.0 93 0.8 S 30 41 16 22 1014.5 1014.4 0.0
24/05:00pm 22.7 21.2 21.0 90 1.1 S 30 41 16 22 1014.5 1014.4 0.0
24/04:30pm 22.9 21.4 21.0 89 1.2 S 30 44 16 24 1014.2 1014.1 0.0
24/04:00pm 22.6 21.2 20.5 88 1.4 SSW 28 37 15 20 1014.4 1014.3 0.0
24/03:30pm 22.9 20.9 20.8 88 1.4 SSW 32 44 17 24 1014.4 1014.3 0.0
24/03:00pm 23.3 21.5 21.2 88 1.4 SSW 32 41 17 22 1014.5 1014.4 0.0

Other Formats:

Comma delimited format used in spreadsheet applications
http://www.bom.gov.au/fwo/IDN60801/IDN60801.95770.axf

JavaScript Object Notation format (JSON) in row-major order
http://www.bom.gov.au/fwo/IDN60801/IDN60801.95770.json